Terminal Aerodrome Forecast
Issued by NWS Riverton, WY

Home | Current Version | Previous Version | Text Only | Print | Product List | Glossary On
Versions: 1 2 3 4 5 6 7 8 9 10 11 12 13 14 15
196
FTUS45 KRIW 172324
TAFRIW
TAF
KRIW 172324Z 1800/1824 35012KT P6SM VCSH SCT012 OVC030
      TEMPO 1800/1804 35015G25KT 3SM -SHSN SCT008 BKN012
     FM180400 30015G25KT P6SM SCT040 BKN080
     FM180600 29010KT P6SM SCT080=

USA.gov is the U.S. government's official web portal to all federal, state and local government web resources and services.